Marshfield, WI (54404)

9:44 PM CDT on August 01, 2014 (GMT -0500)
Marshfield Municipal (KMFI) Elev 1276 ft | 44.64 °N, 90.19 °W | Change Station

Current weather conditions updated 50 minutes ago

Clear
Clear
63 °F
Feels Like 63 °F
N
5
Wind Variable Wind from SW

Tomorrow is forecast to be nearly the same temperature as today. Partly cloudy with a stray thunderstorm tomorrow night.

Today
High -- | Low -- °F
--% Chance of Precip.
Yesterday
High -- | Low -- °F
Precip. -- in
5:47 AM 8:26 PM
Waxing Crescent, 31% visible
Pressure 30.09 in
Visibility 6.0 miles
Clouds Clear
Dew Point 60 °F
Humidity 90%
Rainfall 0.27 in
Snow Depth Not available.
UV 0 out of 12
Pollen 7.20 out of 12
Air Quality Not available.
Flu Activity Not available.
METAR KMFI 020154Z AUTO 23004KT 6SM BR CLR 17/16 A3009 RMK AO2 SLP188 T01720156

More Conditions Fewer Conditions

Pressure 30.09 in
Visibility 6.0 miles
Clouds Clear
Dew Point 60 °F
Humidity 90%
Rainfall 0.27 in
Snow Depth Not available.
UV 0 out of 12
Pollen 7.20 out of 12
Air Quality Not available.
Flu Activity Not available.
METAR KMFI 020154Z AUTO 23004KT 6SM BR CLR 17/16 A3009 RMK AO2 SLP188 T01720156

More Conditions Fewer Conditions

10-Day Weather Forecast

Almanac

Astronomy

Aug. 01, 2014 Rise Set
Actual Time 5:47 AM CDT 8:26 PM CDT
Civil Twilight 5:13 AM CDT 8:59 PM CDT
Nautical Twilight 4:31 AM CDT 9:41 PM CDT
Astronomical Twilight 3:42 AM CDT 10:29 PM CDT
Moon 11:26 AM CDT (8/1) 10:54 PM CDT (8/1)
Length of Visible Light 15h 46m
Length of Day
14h 39m
Tomorrow will be 2m 23s shorter.
Waxing Crescent, 31% of the Moon is Illuminated
Today
Waxing Crescent
Aug 3
First Quarter
Aug 10
Full
Aug 17
Last Quarter
Aug 25
New

Today's Extremes

State Highs State Lows

Community

WunderPhotos

Upload Photos

1,739,813 photos uploaded!

Nearby

Snow Depth

Station Depth Elevation
No new snow has been reported.

Earthquake Activity

City Distance Mag. Time & Date
No recent earthquake activity has been reported nearby.
Minimum magnitude displayed is 2.5.

Coastal Water Temperatures

Place Temperature
No Stations Reporting

Nearby Weather Stations

Station Location Temp. Dew Point Humidity Wind Precip. Elev Updated Type
WIDOT Pittsville - STH 13 @ STH 80, Pittsville, WI 62 °F 60 °F 94% SSW  at  6 mph 0.00 in / hr 1040 ft 8:18 PM CDT MADIS
WIDOT Abbotsford - STH 29 3 mi E of Abbo, Abbotsford, WI 63 °F 61 °F 94% NNE  at  0 mph 0.00 in / hr 1400 ft 8:52 PM CDT MADIS

Show More Stations Show Fewer Stations